Time;durP1;ratioP1;P1;durP2;ratioP2;P2;SDS_P1;SDS_P2;PMS_P1;PMS_P2;Temp;Humidity;BMP_temperature;BMP_pressure;BME280_temperature;BME280_humidity;BME280_pressure;Samples;Min_cycle;Max_cycle;Signal;HPM_P1;HPM_P2
2023/10/11 00:00:44;;;;;;;13.07;7.83;;;15.40;1.00;;;;;;5031730;28;20205;-77
2023/10/11 00:05:53;;;;;;;16.10;7.30;;;15.30;1.00;;;;;;5033091;28;20424;-75
2023/10/11 00:08:25;;;;;;;16.13;6.87;;;15.20;1.00;;;;;;5030101;28;20436;-73
2023/10/11 00:10:55;;;;;;;14.47;7.10;;;15.20;1.00;;;;;;5029952;28;20404;-76
2023/10/11 00:13:32;;;;;;;13.00;6.50;;;15.20;1.00;;;;;;5030021;28;20490;-74
2023/10/11 00:16:07;;;;;;;19.33;7.20;;;15.20;1.00;;;;;;5029565;28;20783;-75
2023/10/11 00:18:34;;;;;;;12.60;6.23;;;15.10;1.00;;;;;;5032379;28;20436;-74
2023/10/11 00:21:02;;;;;;;14.03;6.70;;;15.20;1.00;;;;;;5029631;28;20416;-74
2023/10/11 00:23:31;;;;;;;13.63;7.00;;;15.20;1.00;;;;;;5029689;28;20456;-75
2023/10/11 00:26:01;;;;;;;11.53;6.97;;;15.10;1.00;;;;;;5029266;28;20462;-74
2023/10/11 00:28:31;;;;;;;13.27;6.53;;;15.10;1.00;;;;;;5029572;28;20429;-74
2023/10/11 00:31:00;;;;;;;15.57;7.63;;;15.10;1.00;;;;;;5026954;28;20417;-75
2023/10/11 00:33:28;;;;;;;20.20;7.73;;;15.00;1.00;;;;;;5020917;28;20459;-74
2023/10/11 00:35:55;;;;;;;15.70;6.70;;;15.00;1.00;;;;;;5027179;28;20532;-73
2023/10/11 00:38:27;;;;;;;11.77;6.73;;;14.90;1.00;;;;;;5029228;28;20836;-74
2023/10/11 00:41:01;;;;;;;13.40;7.00;;;14.90;1.00;;;;;;5029365;28;20451;-73
2023/10/11 00:43:47;;;;;;;11.83;6.50;;;14.90;1.00;;;;;;5036198;28;20490;-77
2023/10/11 00:46:14;;;;;;;11.50;6.23;;;15.00;1.00;;;;;;5029170;28;20409;-76
2023/10/11 00:51:29;;;;;;;13.63;6.40;;;14.90;1.00;;;;;;5025046;28;20455;-77
2023/10/11 00:53:56;;;;;;;15.20;7.30;;;14.90;1.00;;;;;;5028621;28;20555;-76
2023/10/11 00:56:26;;;;;;;13.70;6.07;;;14.90;1.00;;;;;;5029499;28;20458;-75
2023/10/11 00:58:52;;;;;;;12.97;6.60;;;14.90;1.00;;;;;;5028604;28;20842;-77
2023/10/11 01:01:18;;;;;;;17.47;7.00;;;15.00;1.00;;;;;;5025437;28;20432;-77
2023/10/11 01:03:44;;;;;;;15.50;7.00;;;15.00;1.00;;;;;;5025148;28;20205;-75
2023/10/11 01:06:10;;;;;;;15.27;6.40;;;15.00;1.00;;;;;;5026330;28;20425;-73
2023/10/11 01:08:40;;;;;;;13.13;7.70;;;15.00;1.00;;;;;;5030648;28;20169;-75
2023/10/11 01:11:08;;;;;;;17.87;6.73;;;15.00;1.00;;;;;;5029166;28;20486;-76
2023/10/11 01:13:33;;;;;;;14.57;6.70;;;15.00;1.00;;;;;;5029039;28;20482;-75
2023/10/11 01:16:00;;;;;;;14.40;6.50;;;15.10;1.00;;;;;;5028276;28;20421;-73
2023/10/11 01:18:27;;;;;;;12.50;6.40;;;15.10;1.00;;;;;;5029033;28;20320;-74
2023/10/11 01:20:52;;;;;;;17.97;6.60;;;15.10;1.00;;;;;;5028419;28;20432;-76
2023/10/11 01:23:18;;;;;;;13.20;5.90;;;15.00;1.00;;;;;;5043652;28;20460;-75
2023/10/11 01:25:43;;;;;;;13.20;6.40;;;15.10;1.00;;;;;;5044507;28;20173;-74
2023/10/11 01:28:09;;;;;;;12.83;6.60;;;15.10;1.00;;;;;;5035856;28;20198;-77
2023/10/11 01:30:34;;;;;;;19.00;6.50;;;15.20;1.00;;;;;;5028171;28;20181;-75
2023/10/11 01:32:59;;;;;;;16.43;6.57;;;15.30;1.00;;;;;;5028293;28;20201;-74
2023/10/11 01:35:35;;;;;;;14.23;6.87;;;15.40;1.00;;;;;;5028406;28;20181;-76
2023/10/11 01:38:04;;;;;;;15.80;6.50;;;15.60;1.00;;;;;;5027910;28;20184;-74
2023/10/11 01:40:31;;;;;;;14.70;6.43;;;17.10;1.00;;;;;;5028955;28;20500;-75
2023/10/11 01:42:57;;;;;;;19.47;6.60;;;15.80;1.00;;;;;;5031841;28;20535;-73
2023/10/11 01:45:25;;;;;;;11.50;5.90;;;15.90;1.00;;;;;;5028802;28;20580;-74
2023/10/11 01:47:51;;;;;;;13.13;6.60;;;15.90;1.00;;;;;;5030814;28;20256;-74
2023/10/11 01:50:17;;;;;;;13.10;7.03;;;15.90;1.00;;;;;;5031925;28;20504;-75
2023/10/11 01:52:47;;;;;;;20.70;6.33;;;16.00;1.00;;;;;;5030988;28;20197;-74
2023/10/11 01:55:14;;;;;;;14.67;6.20;;;16.00;1.00;;;;;;5032057;28;20409;-74
2023/10/11 01:57:45;;;;;;;16.00;6.90;;;16.00;1.00;;;;;;5032496;28;20424;-74
2023/10/11 02:00:15;;;;;;;18.73;6.90;;;16.00;1.00;;;;;;5032461;28;20474;-73
2023/10/11 02:02:55;;;;;;;20.17;7.07;;;15.90;1.00;;;;;;5033638;28;20471;-74
2023/10/11 02:05:21;;;;;;;14.07;6.90;;;16.00;1.00;;;;;;5031949;28;20423;-74
2023/10/11 02:07:47;;;;;;;19.33;7.23;;;15.80;1.00;;;;;;5032071;28;20470;-75
2023/10/11 02:10:13;;;;;;;14.03;6.57;;;15.80;1.00;;;;;;5031701;28;20420;-76
2023/10/11 02:12:46;;;;;;;12.57;6.73;;;15.70;1.00;;;;;;5035180;28;20197;-77
2023/10/11 02:15:21;;;;;;;16.77;7.57;;;15.70;1.00;;;;;;5029612;28;20439;-74
2023/10/11 02:17:51;;;;;;;18.10;6.90;;;15.70;1.00;;;;;;5031097;28;20427;-76
2023/10/11 02:20:21;;;;;;;17.30;7.40;;;15.60;1.00;;;;;;5029941;28;20454;-75
2023/10/11 02:22:51;;;;;;;18.80;6.40;;;15.60;1.00;;;;;;5027395;28;20527;-74
2023/10/11 02:25:24;;;;;;;13.90;6.77;;;15.60;1.00;;;;;;5030619;28;20441;-73
2023/10/11 02:27:53;;;;;;;19.33;6.63;;;15.70;1.00;;;;;;5032091;28;20519;-74
2023/10/11 02:30:21;;;;;;;14.47;7.40;;;15.70;1.00;;;;;;5031644;28;20505;-73
2023/10/11 02:32:53;;;;;;;14.87;6.40;;;15.70;1.00;;;;;;5034512;28;20569;-74
2023/10/11 02:35:19;;;;;;;16.75;6.63;;;15.70;1.00;;;;;;5031329;28;20431;-73
2023/10/11 02:37:48;;;;;;;14.93;7.20;;;15.70;1.00;;;;;;5032020;28;20253;-73
2023/10/11 02:40:22;;;;;;;16.37;6.70;;;15.80;1.00;;;;;;5036068;28;20775;-74
2023/10/11 02:42:49;;;;;;;15.67;6.67;;;15.70;1.00;;;;;;5032006;28;20452;-76
2023/10/11 02:45:19;;;;;;;15.20;7.30;;;15.70;1.00;;;;;;5031208;28;20555;-74
2023/10/11 02:47:45;;;;;;;18.07;7.50;;;15.70;1.00;;;;;;5031787;28;20405;-76
2023/10/11 02:50:11;;;;;;;17.13;7.23;;;15.70;1.00;;;;;;5031248;28;20437;-74
2023/10/11 02:52:37;;;;;;;19.90;7.23;;;15.70;1.00;;;;;;5031572;28;20437;-75
2023/10/11 02:55:16;;;;;;;16.83;7.10;;;15.70;1.00;;;;;;5031052;28;20212;-74
2023/10/11 02:57:42;;;;;;;16.20;6.50;;;15.70;1.00;;;;;;5030883;28;20187;-73
2023/10/11 03:00:22;;;;;;;17.90;6.87;;;15.70;1.00;;;;;;5030542;28;20420;-74
2023/10/11 03:02:54;;;;;;;17.57;7.10;;;15.60;1.00;;;;;;5031191;28;20460;-75
2023/10/11 03:05:26;;;;;;;13.53;7.00;;;15.60;1.00;;;;;;5030585;28;20431;-74
2023/10/11 03:07:53;;;;;;;15.90;6.60;;;15.50;1.00;;;;;;5031513;28;20764;-74
2023/10/11 03:10:18;;;;;;;13.73;6.57;;;15.50;1.00;;;;;;5030977;28;20416;-75
2023/10/11 03:12:44;;;;;;;20.00;8.40;;;15.50;1.00;;;;;;5031106;28;20522;-74
2023/10/11 03:15:11;;;;;;;12.40;6.30;;;15.50;1.00;;;;;;5031797;28;20178;-74
2023/10/11 03:17:45;;;;;;;17.13;6.97;;;15.60;1.00;;;;;;5031704;28;20197;-73
2023/10/11 03:20:31;;;;;;;11.10;5.90;;;15.60;1.00;;;;;;5030339;28;20420;-75
2023/10/11 03:23:03;;;;;;;16.03;6.70;;;15.60;1.00;;;;;;5026653;28;20885;-75
2023/10/11 03:25:29;;;;;;;13.63;6.67;;;15.60;1.00;;;;;;5031442;28;20822;-74
2023/10/11 03:27:56;;;;;;;14.27;7.13;;;15.60;1.00;;;;;;5030187;28;20444;-75
2023/10/11 03:30:24;;;;;;;13.20;6.30;;;15.70;1.00;;;;;;5033024;28;20460;-74
2023/10/11 03:32:50;;;;;;;11.73;6.70;;;15.60;1.00;;;;;;5030491;28;20459;-74
2023/10/11 03:35:18;;;;;;;25.10;7.00;;;15.60;1.00;;;;;;5024947;28;20810;-75
2023/10/11 03:37:57;;;;;;;14.97;8.00;;;15.50;1.00;;;;;;5030034;28;20943;-74
2023/10/11 03:40:54;;;;;;;13.73;7.10;;;15.50;1.00;;;;;;5030040;28;20827;-75
2023/10/11 03:43:20;;;;;;;17.13;7.20;;;15.40;1.00;;;;;;5028112;28;20497;-74
2023/10/11 03:45:56;;;;;;;15.50;7.00;;;15.40;1.00;;;;;;5029947;28;20915;-74
2023/10/11 03:48:21;;;;;;;15.20;7.37;;;15.30;1.00;;;;;;5029935;28;20169;-80
2023/10/11 03:50:52;;;;;;;14.90;7.30;;;15.20;1.00;;;;;;5030305;28;20500;-74
2023/10/11 03:53:18;;;;;;;14.07;6.80;;;15.20;1.00;;;;;;5029604;28;20206;-74
2023/10/11 03:55:48;;;;;;;16.07;6.80;;;15.20;1.00;;;;;;5029906;28;20936;-74
2023/10/11 03:58:33;;;;;;;17.80;7.70;;;15.10;1.00;;;;;;5035592;28;20444;-76
2023/10/11 04:01:14;;;;;;;15.43;6.37;;;15.10;1.00;;;;;;5027713;28;20424;-74
2023/10/11 04:03:40;;;;;;;16.73;6.83;;;15.10;1.00;;;;;;5022396;28;20452;-75
2023/10/11 04:06:13;;;;;;;18.30;7.17;;;15.00;1.00;;;;;;5029842;28;20417;-74
2023/10/11 04:08:44;;;;;;;14.03;7.23;;;15.00;1.00;;;;;;5021836;28;20405;-76
2023/10/11 04:11:22;;;;;;;18.83;7.17;;;15.00;1.00;;;;;;5028618;28;20910;-74
2023/10/11 04:13:50;;;;;;;16.83;7.07;;;15.00;1.00;;;;;;5025523;28;20870;-74
2023/10/11 04:16:17;;;;;;;20.07;7.00;;;15.00;1.00;;;;;;5032187;28;20408;-74
2023/10/11 04:18:43;;;;;;;15.83;7.70;;;14.90;1.00;;;;;;5029518;28;20408;-75
2023/10/11 04:21:52;;;;;;;19.50;8.40;;;14.90;1.00;;;;;;5029516;28;20497;-73
2023/10/11 04:24:13;;;;;;;19.30;6.80;;;14.90;1.00;;;;;;5029167;28;20514;-73
2023/10/11 04:26:39;;;;;;;15.40;6.50;;;14.90;1.00;;;;;;5029046;28;20429;-76
2023/10/11 04:29:16;;;;;;;15.97;7.27;;;14.90;1.00;;;;;;5029315;28;20197;-74
2023/10/11 04:31:55;;;;;;;12.07;6.40;;;14.90;1.00;;;;;;5023501;28;20200;-74
2023/10/11 04:34:31;;;;;;;23.47;7.43;;;14.80;1.00;;;;;;5031224;28;20478;-75
2023/10/11 04:36:57;;;;;;;13.53;7.23;;;14.80;1.00;;;;;;5029206;28;20426;-74
2023/10/11 04:39:33;;;;;;;15.20;7.33;;;14.80;1.00;;;;;;5029235;28;20412;-74
2023/10/11 04:41:59;;;;;;;20.00;6.90;;;14.80;1.00;;;;;;5029178;28;20659;-74
2023/10/11 04:44:30;;;;;;;20.80;6.80;;;14.80;1.00;;;;;;5028595;28;20460;-75
2023/10/11 04:47:00;;;;;;;17.53;7.30;;;14.80;1.00;;;;;;5029535;28;20181;-76
2023/10/11 04:49:30;;;;;;;13.47;6.20;;;14.70;1.00;;;;;;5035543;28;20415;-76
2023/10/11 04:51:57;;;;;;;16.50;6.63;;;14.80;1.00;;;;;;5029139;28;20419;-75
2023/10/11 04:54:35;;;;;;;16.70;6.90;;;14.70;1.00;;;;;;5028891;28;20976;-74
2023/10/11 04:57:07;;;;;;;20.00;7.07;;;14.70;1.00;;;;;;5029016;28;20424;-75
2023/10/11 05:01:58;;;;;;;16.33;7.83;;;14.70;1.00;;;;;;5028854;28;20837;-75
2023/10/11 05:04:30;;;;;;;20.67;11.00;;;14.70;1.00;;;;;;5028709;28;20463;-74
2023/10/11 05:06:56;;;;;;;24.40;12.67;;;14.70;1.00;;;;;;5035717;28;20594;-75
2023/10/11 05:09:30;;;;;;;23.00;11.77;;;14.70;1.00;;;;;;5028556;28;20982;-74
2023/10/11 05:15:01;;;;;;;23.80;10.70;;;14.70;1.00;;;;;;5028815;28;20424;-74
2023/10/11 05:17:23;;;;;;;26.30;10.27;;;14.70;1.00;;;;;;5027979;28;20443;-75
2023/10/11 05:28:07;;;;;;;22.93;8.10;;;14.70;1.00;;;;;;5021942;28;20886;-74
2023/10/11 05:30:37;;;;;;;20.40;8.43;;;14.70;1.00;;;;;;5026591;28;20499;-74
2023/10/11 05:52:07;;;;;;;13.83;6.10;;;14.60;1.00;;;;;;5031951;28;20539;-75
2023/10/11 05:54:36;;;;;;;14.00;6.60;;;14.70;1.00;;;;;;5027603;28;20437;-75
2023/10/11 05:57:05;;;;;;;19.20;8.27;;;14.60;1.00;;;;;;5028927;28;20783;-74
2023/10/11 05:59:32;;;;;;;16.07;6.90;;;15.00;1.00;;;;;;5028119;28;20420;-75
2023/10/11 06:01:58;;;;;;;12.93;6.17;;;14.70;1.00;;;;;;5028389;28;20420;-76
2023/10/11 06:04:24;;;;;;;15.70;6.53;;;14.70;1.00;;;;;;5028013;28;20605;-77
2023/10/11 06:06:57;;;;;;;12.80;6.63;;;14.70;1.00;;;;;;5027861;28;20425;-75
2023/10/11 06:09:27;;;;;;;12.90;6.40;;;14.70;1.00;;;;;;5032586;28;20628;-73
2023/10/11 06:11:52;;;;;;;13.00;6.53;;;14.80;1.00;;;;;;5028273;28;20452;-75
2023/10/11 06:14:19;;;;;;;14.80;6.33;;;14.80;1.00;;;;;;5028710;28;20459;-75
2023/10/11 06:16:49;;;;;;;13.87;6.53;;;14.80;1.00;;;;;;5027709;28;20174;-75
2023/10/11 06:19:16;;;;;;;12.07;6.07;;;14.80;1.00;;;;;;5019433;28;20436;-74
2023/10/11 06:21:58;;;;;;;11.50;6.00;;;14.80;1.00;;;;;;5027549;28;20431;-74
2023/10/11 06:24:30;;;;;;;12.70;6.80;;;14.90;1.00;;;;;;5024372;28;20909;-75
2023/10/11 06:26:56;;;;;;;20.30;7.13;;;14.90;1.00;;;;;;5024356;28;20439;-75
2023/10/11 06:29:23;;;;;;;16.63;6.10;;;15.00;1.00;;;;;;5030926;28;20421;-76
2023/10/11 06:31:50;;;;;;;11.63;7.00;;;15.20;1.00;;;;;;5023451;28;20213;-72
2023/10/11 06:34:18;;;;;;;15.83;6.53;;;15.20;1.00;;;;;;5021631;28;20428;-72
2023/10/11 06:36:50;;;;;;;12.80;6.70;;;15.30;1.00;;;;;;5028724;28;20427;-72
2023/10/11 06:42:12;;;;;;;15.17;6.47;;;15.50;1.00;;;;;;5011606;28;20431;-72
2023/10/11 06:44:39;;;;;;;15.03;6.63;;;15.50;1.00;;;;;;5007690;28;20467;-75
2023/10/11 06:47:05;;;;;;;14.93;6.30;;;15.50;1.00;;;;;;5024275;28;20440;-75
2023/10/11 06:49:35;;;;;;;16.30;6.80;;;15.60;1.00;;;;;;5022963;28;20421;-72
2023/10/11 06:52:01;;;;;;;13.60;6.10;;;15.70;1.00;;;;;;5026223;28;20204;-73
2023/10/11 06:54:32;;;;;;;13.70;6.53;;;16.10;1.00;;;;;;5028980;28;20430;-74
2023/10/11 06:56:57;;;;;;;19.70;6.93;;;15.70;1.00;;;;;;5030949;28;20339;-73
2023/10/11 06:59:23;;;;;;;16.57;6.47;;;15.80;1.00;;;;;;5030627;28;20515;-72
2023/10/11 07:01:48;;;;;;;16.13;6.23;;;15.90;1.00;;;;;;5021824;28;20216;-73
2023/10/11 07:04:18;;;;;;;18.30;6.60;;;15.90;1.00;;;;;;5023214;28;20228;-75
2023/10/11 07:06:46;;;;;;;16.03;6.10;;;16.00;1.00;;;;;;5028066;28;20439;-79
2023/10/11 07:09:20;;;;;;;15.33;6.37;;;16.00;1.00;;;;;;5023849;28;20425;-74
2023/10/11 07:12:18;;;;;;;17.17;5.70;;;16.10;1.00;;;;;;5032964;28;22101;-75
2023/10/11 07:14:41;;;;;;;16.90;6.60;;;16.20;1.00;;;;;;5032062;28;20949;-76
2023/10/11 07:17:08;;;;;;;22.80;6.67;;;16.30;1.00;;;;;;5021182;28;20483;-74
2023/10/11 07:19:36;;;;;;;13.07;6.10;;;16.40;1.00;;;;;;5032118;28;20463;-79
2023/10/11 07:22:04;;;;;;;14.13;6.37;;;16.50;1.00;;;;;;5024679;28;20846;-75
2023/10/11 07:24:39;;;;;;;28.43;6.80;;;16.50;1.00;;;;;;5031980;28;20518;-74
2023/10/11 07:27:08;;;;;;;15.93;6.30;;;16.70;1.00;;;;;;5027603;28;20995;-74
2023/10/11 07:29:35;;;;;;;20.57;6.40;;;16.80;1.00;;;;;;5037745;28;20926;-75
2023/10/11 07:32:02;;;;;;;15.03;6.97;;;16.90;1.00;;;;;;5033491;28;20456;-77
2023/10/11 07:34:27;;;;;;;19.33;6.70;;;16.90;1.00;;;;;;5030872;28;20497;-75
2023/10/11 07:36:55;;;;;;;15.60;6.60;;;16.90;1.00;;;;;;5034303;28;21059;-76
2023/10/11 07:39:25;;;;;;;16.30;5.90;;;17.00;1.00;;;;;;5029090;28;20177;-73
2023/10/11 07:42:08;;;;;;;12.17;6.90;;;17.10;1.00;;;;;;5030109;28;20486;-75
2023/10/11 07:44:38;;;;;;;16.83;7.33;;;17.10;1.00;;;;;;5029119;28;20471;-74
2023/10/11 07:47:07;;;;;;;14.77;6.60;;;17.20;1.00;;;;;;5029620;28;20840;-77
2023/10/11 07:49:39;;;;;;;17.57;7.00;;;17.30;1.00;;;;;;5027246;28;20455;-72
2023/10/11 07:52:08;;;;;;;17.40;6.80;;;17.40;1.00;;;;;;5032520;28;20459;-74
2023/10/11 07:54:39;;;;;;;14.33;6.60;;;17.40;1.00;;;;;;5036772;28;20819;-72
2023/10/11 07:57:12;;;;;;;16.90;6.53;;;17.40;1.00;;;;;;5038900;28;20424;-75
2023/10/11 07:59:39;;;;;;;18.03;6.40;;;17.50;1.00;;;;;;5035576;28;20427;-74
2023/10/11 08:02:09;;;;;;;22.10;7.67;;;17.60;1.00;;;;;;5034024;28;21167;-76
2023/10/11 08:04:47;;;;;;;18.90;7.07;;;17.70;1.00;;;;;;5028984;28;20495;-72
2023/10/11 08:07:16;;;;;;;14.90;6.27;;;17.70;1.00;;;;;;5020774;28;20638;-75
2023/10/11 08:09:45;;;;;;;16.70;7.47;;;17.80;1.00;;;;;;5027108;28;20425;-74
2023/10/11 08:12:18;;;;;;;16.10;7.13;;;18.00;1.00;;;;;;5026369;28;20501;-77
2023/10/11 08:14:47;;;;;;;11.90;6.40;;;18.00;1.00;;;;;;5028362;28;20583;-75
2023/10/11 08:17:14;;;;;;;11.30;6.67;;;18.10;1.00;;;;;;5026161;28;20428;-76
2023/10/11 08:19:44;;;;;;;20.47;7.47;;;18.20;1.00;;;;;;5030437;28;20437;-76
2023/10/11 08:22:10;;;;;;;13.90;7.10;;;18.30;1.00;;;;;;5023560;28;20456;-75
2023/10/11 08:24:46;;;;;;;27.43;7.60;;;18.50;1.00;;;;;;5026320;28;20494;-73
2023/10/11 08:27:12;;;;;;;17.43;7.23;;;18.70;1.00;;;;;;5029407;28;20530;-77
2023/10/11 08:29:42;;;;;;;16.60;7.30;;;18.90;1.00;;;;;;5026202;28;21768;-76
2023/10/11 08:32:12;;;;;;;16.80;7.27;;;19.20;1.00;;;;;;5025566;28;20510;-75
2023/10/11 08:34:43;;;;;;;19.90;7.40;;;20.30;1.00;;;;;;5028463;28;20463;-75
2023/10/11 08:37:08;;;;;;;16.17;7.33;;;21.90;1.00;;;;;;5045104;28;20494;-75
2023/10/11 08:39:36;;;;;;;10.80;6.57;;;22.90;1.00;;;;;;5022046;28;20434;-75
2023/10/11 08:42:10;;;;;;;21.37;6.93;;;25.70;1.00;;;;;;5026832;28;20173;-75
2023/10/11 08:44:36;;;;;;;16.60;6.20;;;25.80;1.00;;;;;;5022348;28;20555;-75
2023/10/11 08:47:06;;;;;;;16.27;6.50;;;27.00;1.00;;;;;;5027453;28;20518;-76
2023/10/11 08:49:35;;;;;;;14.77;7.17;;;27.70;1.00;;;;;;5028768;28;20200;-75
2023/10/11 08:52:01;;;;;;;18.93;6.67;;;28.00;1.00;;;;;;5028644;28;20181;-75
2023/10/11 08:54:28;;;;;;;14.47;6.80;;;28.20;1.00;;;;;;5028769;28;20287;-75
2023/10/11 08:56:54;;;;;;;20.13;6.90;;;28.40;1.00;;;;;;5025064;28;20181;-75
2023/10/11 08:59:27;;;;;;;15.30;6.53;;;28.50;1.00;;;;;;5029319;28;20238;-74
2023/10/11 09:01:59;;;;;;;15.90;6.82;;;29.00;1.00;;;;;;5025862;28;20178;-74
2023/10/11 09:04:28;;;;;;;15.00;6.40;;;29.00;1.00;;;;;;5024548;28;20851;-76
2023/10/11 09:06:57;;;;;;;17.65;7.13;;;29.90;1.00;;;;;;5022280;28;20251;-75
2023/10/11 09:09:47;;;;;;;20.05;6.72;;;29.30;1.00;;;;;;5026160;28;20648;-74
2023/10/11 09:12:26;;;;;;;17.27;6.68;;;29.30;1.00;;;;;;5033100;28;20595;-74
2023/10/11 09:15:04;;;;;;;17.35;7.05;;;29.80;1.00;;;;;;5025521;28;20205;-78
2023/10/11 09:17:38;;;;;;;12.07;6.00;;;30.50;1.00;;;;;;5023867;28;20199;-75
2023/10/11 09:20:23;;;;;;;16.27;6.53;;;31.30;1.00;;;;;;5013605;28;20188;-76
2023/10/11 09:22:53;;;;;;;15.90;6.05;;;31.20;1.00;;;;;;5027102;28;20221;-76
2023/10/11 09:25:23;;;;;;;17.25;6.18;;;31.10;1.00;;;;;;5021703;28;20633;-75
2023/10/11 09:27:49;;;;;;;17.75;6.00;;;31.20;1.00;;;;;;5028782;28;20663;-76
2023/10/11 09:30:20;;;;;;;13.23;6.00;;;31.30;1.00;;;;;;5028183;28;20579;-76
2023/10/11 09:32:51;;;;;;;11.65;5.80;;;32.20;1.00;;;;;;5026354;28;20189;-76
2023/10/11 09:35:26;;;;;;;16.83;5.85;;;32.40;1.00;;;;;;5020793;28;20199;-76
2023/10/11 09:37:53;;;;;;;19.52;5.85;;;33.50;1.00;;;;;;5030288;28;20173;-74
2023/10/11 09:40:25;;;;;;;18.50;6.15;;;34.50;1.00;;;;;;5029700;28;20178;-73
2023/10/11 09:42:53;;;;;;;14.73;5.90;;;33.40;1.00;;;;;;5029287;28;20193;-78
2023/10/11 09:45:19;;;;;;;17.73;6.18;;;33.30;1.00;;;;;;5031489;28;20183;-75
2023/10/11 09:47:45;;;;;;;12.43;5.53;;;33.30;1.00;;;;;;5036912;28;20726;-74
2023/10/11 09:50:15;;;;;;;13.68;5.93;;;33.20;1.00;;;;;;5024386;28;20234;-75
2023/10/11 09:52:46;;;;;;;20.85;6.47;;;33.10;1.00;;;;;;5023528;28;20193;-75
2023/10/11 09:55:17;;;;;;;15.32;5.82;;;33.60;1.00;;;;;;5024895;28;20261;-78
2023/10/11 09:57:55;;;;;;;15.43;5.55;;;34.00;1.00;;;;;;5026245;28;20608;-75
2023/10/11 10:00:35;;;;;;;16.30;5.55;;;34.00;1.00;;;;;;5027650;28;20203;-75
2023/10/11 10:03:04;;;;;;;17.85;5.57;;;33.20;1.00;;;;;;5024452;28;20244;-76
2023/10/11 10:06:06;;;;;;;16.48;5.90;;;33.60;1.00;;;;;;5030688;28;20538;-78
2023/10/11 10:08:31;;;;;;;13.13;5.60;;;34.20;1.00;;;;;;5026545;28;20268;-76
2023/10/11 10:10:57;;;;;;;14.90;5.47;;;35.60;1.00;;;;;;5027626;28;20268;-75
2023/10/11 10:13:25;;;;;;;12.40;5.25;;;36.10;1.00;;;;;;5026766;28;20189;-77
2023/10/11 10:15:53;;;;;;;13.48;5.80;;;36.10;1.00;;;;;;5035403;28;20200;-77
2023/10/11 10:18:20;;;;;;;11.35;5.32;;;36.10;1.00;;;;;;5027526;28;20264;-76
2023/10/11 10:20:47;;;;;;;15.45;5.28;;;36.00;1.00;;;;;;5025010;28;20267;-76
2023/10/11 10:23:15;;;;;;;25.10;6.03;;;35.10;1.00;;;;;;5026802;28;20301;-80
2023/10/11 10:25:47;;;;;;;12.32;5.72;;;35.40;1.00;;;;;;5027205;28;20177;-76
2023/10/11 10:28:42;;;;;;;22.38;5.68;;;36.20;1.00;;;;;;5023468;28;20284;-76
2023/10/11 10:31:21;;;;;;;18.92;5.43;;;37.00;1.00;;;;;;5027725;28;20187;-75
2023/10/11 10:34:07;;;;;;;12.90;5.45;;;37.50;1.00;;;;;;5030991;28;20193;-77
2023/10/11 10:36:34;;;;;;;18.38;5.40;;;38.10;1.00;;;;;;5027100;28;20204;-77
2023/10/11 10:41:55;;;;;;;11.75;5.50;;;37.30;1.00;;;;;;5031043;28;20284;-78
2023/10/11 10:44:21;;;;;;;17.50;5.70;;;37.60;1.00;;;;;;5025195;28;20189;-75
2023/10/11 10:46:49;;;;;;;14.35;5.15;;;37.40;1.00;;;;;;5034120;28;20539;-77
2023/10/11 10:49:17;;;;;;;15.90;4.95;;;37.00;1.00;;;;;;5030214;28;20172;-75
2023/10/11 10:51:47;;;;;;;12.63;5.47;;;36.70;1.00;;;;;;5029591;28;20170;-76
2023/10/11 10:54:14;;;;;;;23.60;5.20;;;36.60;1.00;;;;;;5032240;28;20193;-75
2023/10/11 10:56:41;;;;;;;11.65;5.18;;;37.10;1.00;;;;;;5022311;28;20178;-75
2023/10/11 10:59:08;;;;;;;20.38;6.07;;;36.60;1.00;;;;;;5033837;28;20181;-76
2023/10/11 11:01:34;;;;;;;17.48;5.85;;;37.60;1.00;;;;;;5024378;28;20204;-76
2023/10/11 11:04:07;;;;;;;13.85;5.53;;;38.80;1.00;;;;;;5028693;28;20247;-76
2023/10/11 11:06:48;;;;;;;15.23;5.32;;;39.80;1.00;;;;;;5026219;28;20643;-76
2023/10/11 11:09:18;;;;;;;13.70;5.22;;;40.20;1.00;;;;;;5031396;28;20200;-76
2023/10/11 11:11:53;;;;;;;10.90;4.82;;;40.00;1.00;;;;;;5024658;28;20181;-76
2023/10/11 11:14:19;;;;;;;11.07;5.57;;;39.80;1.00;;;;;;5026177;28;20180;-76
2023/10/11 11:16:58;;;;;;;14.35;5.10;;;40.20;1.00;;;;;;5027225;28;20176;-77
2023/10/11 11:19:26;;;;;;;12.13;5.07;;;39.30;1.00;;;;;;5022459;28;20173;-76
2023/10/11 11:22:12;;;;;;;15.50;5.07;;;40.00;1.00;;;;;;5028378;28;20205;-80
2023/10/11 11:24:41;;;;;;;18.45;5.07;;;40.00;1.00;;;;;;5025903;28;20205;-76
2023/10/11 11:27:26;;;;;;;14.60;5.43;;;40.10;1.00;;;;;;5028486;28;20198;-76
2023/10/11 11:30:02;;;;;;;11.60;5.15;;;39.80;1.00;;;;;;5032097;28;20173;-73
2023/10/11 11:32:38;;;;;;;11.45;4.97;;;40.50;1.00;;;;;;5025927;28;20192;-75
2023/10/11 11:38:02;;;;;;;14.25;5.30;;;40.20;1.00;;;;;;5031687;28;20292;-74
2023/10/11 11:40:36;;;;;;;12.20;4.90;;;39.20;1.00;;;;;;5026837;28;20201;-74
2023/10/11 11:43:03;;;;;;;13.68;5.32;;;39.20;1.00;;;;;;5028653;28;20662;-74
2023/10/11 11:45:35;;;;;;;16.75;5.95;;;39.10;1.00;;;;;;5031584;28;20607;-73
2023/10/11 11:48:02;;;;;;;15.13;5.57;;;39.20;1.00;;;;;;5028588;28;20205;-77
2023/10/11 11:50:33;;;;;;;13.23;5.15;;;39.80;1.00;;;;;;5025268;28;20178;-73
2023/10/11 11:53:00;;;;;;;17.98;5.40;;;39.90;1.00;;;;;;5024973;28;20258;-76
2023/10/11 11:55:26;;;;;;;17.52;4.97;;;39.80;1.00;;;;;;5031374;28;20172;-73
2023/10/11 11:57:53;;;;;;;14.38;4.88;;;39.50;1.00;;;;;;5036379;28;20173;-73
2023/10/11 12:02:58;;;;;;;15.95;4.80;;;38.90;1.00;;;;;;5022234;28;20345;-75
2023/10/11 12:05:25;;;;;;;18.10;5.60;;;37.80;1.00;;;;;;5024643;28;20680;-74
2023/10/11 12:07:51;;;;;;;20.60;5.90;;;37.60;1.00;;;;;;5023821;28;20252;-74
2023/10/11 12:10:23;;;;;;;13.25;6.15;;;38.10;1.00;;;;;;5024953;28;20269;-73
2023/10/11 12:13:05;;;;;;;17.52;5.05;;;38.40;1.00;;;;;;5022394;28;20557;-73
2023/10/11 12:15:32;;;;;;;13.68;4.53;;;38.40;1.00;;;;;;5022041;28;20256;-73
2023/10/11 12:17:57;;;;;;;11.85;4.82;;;38.30;1.00;;;;;;5029281;28;20216;-74
2023/10/11 12:20:27;;;;;;;26.98;5.32;;;38.90;1.00;;;;;;5027930;28;20201;-75
2023/10/11 12:22:53;;;;;;;22.63;5.45;;;39.60;1.00;;;;;;5040350;28;20195;-73
2023/10/11 12:25:24;;;;;;;19.80;5.07;;;39.10;1.00;;;;;;5027869;28;20192;-74
2023/10/11 12:27:50;;;;;;;21.52;5.22;;;38.50;1.00;;;;;;5028170;28;20189;-74
2023/10/11 12:30:22;;;;;;;15.25;4.90;;;39.10;1.00;;;;;;5024806;28;20686;-73
2023/10/11 12:32:52;;;;;;;24.00;5.30;;;40.40;1.00;;;;;;5033274;28;20255;-73
2023/10/11 12:35:23;;;;;;;16.70;4.95;;;40.40;1.00;;;;;;5022323;28;20264;-73
2023/10/11 12:37:48;;;;;;;21.98;5.60;;;40.10;1.00;;;;;;5028405;28;20620;-73
2023/10/11 12:40:22;;;;;;;16.85;5.47;;;38.90;1.00;;;;;;5026561;28;20184;-75
2023/10/11 12:42:48;;;;;;;14.90;5.07;;;38.90;1.00;;;;;;5023332;28;20241;-73
2023/10/11 12:45:17;;;;;;;18.98;5.60;;;39.10;1.00;;;;;;5026629;28;20177;-74
2023/10/11 12:47:43;;;;;;;14.30;5.20;;;38.80;1.00;;;;;;5022854;28;20201;-74
2023/10/11 12:50:09;;;;;;;14.82;4.90;;;38.90;1.00;;;;;;5024128;28;20181;-76
2023/10/11 12:52:38;;;;;;;18.58;4.80;;;39.20;1.00;;;;;;5029421;28;20200;-73
2023/10/11 12:55:06;;;;;;;15.20;4.82;;;39.20;1.00;;;;;;5026864;28;20184;-73
2023/10/11 12:57:38;;;;;;;17.70;4.80;;;38.10;1.00;;;;;;5027475;28;20182;-74
2023/10/11 13:00:15;;;;;;;15.18;4.68;;;37.40;1.00;;;;;;5028609;28;20176;-74
2023/10/11 13:02:48;;;;;;;16.33;5.20;;;36.60;1.00;;;;;;5025929;28;20204;-73
2023/10/11 13:05:15;;;;;;;17.42;4.72;;;35.30;1.00;;;;;;5025063;28;20189;-74
2023/10/11 13:07:42;;;;;;;22.20;5.53;;;35.00;1.00;;;;;;5025488;28;20181;-76
2023/10/11 13:10:07;;;;;;;18.45;5.65;;;34.60;1.00;;;;;;5021271;28;20177;-75
2023/10/11 13:12:37;;;;;;;21.90;5.72;;;33.40;1.00;;;;;;5023115;28;20193;-74
2023/10/11 13:15:08;;;;;;;30.00;5.00;;;33.30;1.00;;;;;;5023952;28;20262;-74
2023/10/11 13:17:34;;;;;;;19.55;5.38;;;34.00;1.00;;;;;;5019370;28;20671;-74
2023/10/11 13:20:08;;;;;;;10.32;5.03;;;32.90;1.00;;;;;;5024997;28;20181;-73
2023/10/11 13:22:34;;;;;;;21.85;4.70;;;33.60;1.00;;;;;;5028184;28;20196;-75
2023/10/11 13:25:02;;;;;;;19.85;5.15;;;33.90;1.00;;;;;;5021966;28;20293;-73
2023/10/11 13:27:28;;;;;;;16.42;5.45;;;33.60;1.00;;;;;;5028450;28;20642;-74
2023/10/11 13:29:53;;;;;;;17.75;4.80;;;33.50;1.00;;;;;;5028023;28;20263;-76
2023/10/11 13:32:19;;;;;;;16.52;4.75;;;33.30;1.00;;;;;;5024953;28;20189;-74
2023/10/11 13:34:44;;;;;;;15.07;4.60;;;33.00;1.00;;;;;;5027328;28;20181;-73
2023/10/11 13:37:11;;;;;;;17.40;5.35;;;32.30;1.00;;;;;;5026854;28;20239;-74
2023/10/11 13:39:44;;;;;;;17.08;4.90;;;32.90;1.00;;;;;;5026750;28;20177;-74
2023/10/11 13:42:10;;;;;;;11.75;4.47;;;32.40;1.00;;;;;;5027523;28;20209;-74
2023/10/11 13:44:39;;;;;;;17.27;5.13;;;32.30;1.00;;;;;;5025226;28;20205;-74
2023/10/11 13:47:05;;;;;;;12.02;4.68;;;32.00;1.00;;;;;;5030765;28;20188;-75
2023/10/11 13:49:33;;;;;;;14.95;4.93;;;31.70;1.00;;;;;;5029105;28;20178;-74